createdAt,value
2023-05-20T00:00:54.793Z,25.80
2023-05-20T00:03:23.075Z,25.40
2023-05-20T00:05:51.515Z,25.90
2023-05-20T00:08:19.959Z,25.60
2023-05-20T00:10:48.037Z,25.30
2023-05-20T00:13:15.944Z,25.00
2023-05-20T00:15:43.971Z,25.20
2023-05-20T00:18:12.067Z,25.60
2023-05-20T00:20:40.115Z,25.00
2023-05-20T00:23:08.182Z,25.50
2023-05-20T00:25:36.408Z,24.10
2023-05-20T00:28:06.197Z,25.90
2023-05-20T00:30:34.157Z,24.80
2023-05-20T00:33:02.369Z,25.00
2023-05-20T00:35:30.395Z,24.30
2023-05-20T00:37:58.286Z,25.00
2023-05-20T00:40:26.396Z,24.10
2023-05-20T00:42:54.932Z,24.60
2023-05-20T00:45:23.122Z,24.30
2023-05-20T00:47:51.251Z,24.10
2023-05-20T00:50:19.323Z,23.60
2023-05-20T00:52:48.384Z,24.10
2023-05-20T00:55:16.774Z,24.10
2023-05-20T00:57:44.793Z,25.10
2023-05-20T01:00:14.205Z,24.40
2023-05-20T01:02:42.355Z,24.00
2023-05-20T01:05:10.829Z,24.10
2023-05-20T01:07:39.012Z,24.80
2023-05-20T01:10:07.647Z,24.40
2023-05-20T01:13:05.291Z,24.60
2023-05-20T01:15:33.960Z,24.50
2023-05-20T01:18:06.093Z,24.80
2023-05-20T01:20:35.994Z,24.30
2023-05-20T01:23:04.407Z,23.90
2023-05-20T01:25:32.527Z,25.10
2023-05-20T01:28:02.222Z,25.10
2023-05-20T01:30:36.069Z,25.40
2023-05-20T01:33:09.820Z,24.50
2023-05-20T01:35:41.552Z,25.40
2023-05-20T01:38:12.733Z,25.60
2023-05-20T01:40:42.927Z,26.10
2023-05-20T01:43:11.175Z,26.90
2023-05-20T01:45:42.049Z,26.80
2023-05-20T01:48:13.541Z,27.50
2023-05-20T01:50:42.520Z,26.30
2023-05-20T01:53:11.742Z,27.00
2023-05-20T01:55:39.771Z,27.50
2023-05-20T01:58:07.769Z,27.50
2023-05-20T02:00:37.138Z,28.00
2023-05-20T02:03:05.420Z,26.90
2023-05-20T02:05:33.744Z,26.20
2023-05-20T02:08:02.069Z,27.70
2023-05-20T02:10:30.087Z,26.90
2023-05-20T02:12:58.025Z,27.30
2023-05-20T02:15:26.226Z,28.00
2023-05-20T02:17:54.926Z,26.90
2023-05-20T02:20:22.941Z,27.80
2023-05-20T02:22:50.953Z,27.10
2023-05-20T02:25:18.994Z,27.30
2023-05-20T02:27:46.977Z,26.80
2023-05-20T02:30:15.201Z,27.00
2023-05-20T02:32:43.272Z,28.20
2023-05-20T02:35:11.441Z,28.50
2023-05-20T02:37:39.598Z,27.20
2023-05-20T02:40:09.385Z,27.60
2023-05-20T02:42:41.263Z,26.50
2023-05-20T02:45:09.787Z,27.30
2023-05-20T02:47:37.840Z,26.90
2023-05-20T02:50:07.227Z,27.30
2023-05-20T02:52:35.243Z,27.80
2023-05-20T02:55:04.924Z,26.70
2023-05-20T02:57:35.138Z,26.70
2023-05-20T03:00:05.054Z,26.10
2023-05-20T03:02:33.849Z,26.50
2023-05-20T03:05:02.614Z,27.10
2023-05-20T03:07:31.716Z,27.20
2023-05-20T03:09:59.992Z,27.90
2023-05-20T03:12:28.031Z,26.90
2023-05-20T03:14:56.110Z,27.30
2023-05-20T03:17:24.307Z,28.90
2023-05-20T03:19:52.239Z,28.00
2023-05-20T03:22:20.227Z,30.50
2023-05-20T03:24:48.511Z,28.10
2023-05-20T03:27:16.475Z,29.50
2023-05-20T03:29:44.633Z,30.20
2023-05-20T03:32:12.573Z,29.50
2023-05-20T03:34:40.846Z,30.50
2023-05-20T03:37:08.834Z,29.20
2023-05-20T03:39:36.951Z,29.60
2023-05-20T03:42:05.536Z,28.70
2023-05-20T03:44:33.956Z,29.10
2023-05-20T03:47:02.093Z,27.90
2023-05-20T03:49:31.123Z,27.50
2023-05-20T03:51:59.167Z,28.30
2023-05-20T03:54:28.163Z,27.10
2023-05-20T03:56:56.689Z,26.30
2023-05-20T03:59:24.919Z,26.50
2023-05-20T04:01:53.375Z,26.10
2023-05-20T04:04:21.472Z,25.60
2023-05-20T04:06:49.914Z,25.80
2023-05-20T04:09:17.905Z,24.70
2023-05-20T04:11:46.301Z,26.20
2023-05-20T04:14:15.350Z,23.70
2023-05-20T04:16:45.252Z,23.40
2023-05-20T04:19:13.424Z,24.20
2023-05-20T04:21:43.322Z,23.90
2023-05-20T04:24:11.855Z,24.30
2023-05-20T04:26:40.296Z,24.20
2023-05-20T04:29:08.268Z,24.30
2023-05-20T04:31:38.592Z,24.10
2023-05-20T04:34:06.597Z,24.70
2023-05-20T04:36:34.740Z,24.30
2023-05-20T04:39:05.135Z,23.50
2023-05-20T04:41:33.265Z,23.70
2023-05-20T04:44:01.969Z,23.80
2023-05-20T04:46:31.718Z,24.30
2023-05-20T04:48:59.967Z,23.10
2023-05-20T04:51:29.493Z,22.80
2023-05-20T04:54:35.866Z,23.10
2023-05-20T04:57:35.321Z,22.80
2023-05-20T05:00:07.368Z,22.60
2023-05-20T05:02:36.352Z,23.90
2023-05-20T05:05:05.044Z,23.60
2023-05-20T05:07:33.325Z,22.70
2023-05-20T05:10:01.462Z,23.50
2023-05-20T05:12:31.228Z,23.70
2023-05-20T05:14:59.999Z,22.70
2023-05-20T05:17:29.250Z,23.80
2023-05-20T05:19:58.269Z,23.30
2023-05-20T05:22:27.112Z,23.80
2023-05-20T05:24:55.902Z,24.20
2023-05-20T05:27:24.268Z,23.90
2023-05-20T05:29:52.510Z,23.90
2023-05-20T05:32:20.807Z,24.90
2023-05-20T05:34:49.123Z,23.70
2023-05-20T05:37:17.363Z,24.70
2023-05-20T05:39:45.610Z,25.20
2023-05-20T05:42:13.863Z,25.00
2023-05-20T05:44:42.784Z,23.80
2023-05-20T05:47:11.713Z,23.40
2023-05-20T05:49:39.833Z,23.80
2023-05-20T05:52:08.224Z,22.50
2023-05-20T05:54:36.626Z,21.80
2023-05-20T05:57:06.483Z,22.40
2023-05-20T05:59:35.468Z,22.10
2023-05-20T06:02:06.424Z,22.10
2023-05-20T06:04:34.508Z,21.00
2023-05-20T06:07:02.814Z,22.30
2023-05-20T06:09:31.112Z,23.10
2023-05-20T06:11:59.682Z,22.40
2023-05-20T06:14:27.775Z,23.10
2023-05-20T06:16:56.054Z,22.60
2023-05-20T06:19:24.602Z,24.50
2023-05-20T06:21:52.748Z,24.30
2023-05-20T06:24:22.410Z,22.70
2023-05-20T06:26:52.439Z,21.20
2023-05-20T06:29:21.063Z,23.10
2023-05-20T06:31:49.044Z,22.50
2023-05-20T06:34:16.996Z,21.90
2023-05-20T06:36:44.946Z,22.00
2023-05-20T06:39:13.127Z,23.00
2023-05-20T06:41:44.433Z,24.20
2023-05-20T06:44:19.943Z,23.20
2023-05-20T06:47:00.022Z,25.00
2023-05-20T06:49:28.531Z,22.60
2023-05-20T06:51:56.707Z,24.20
2023-05-20T06:54:25.598Z,23.70
2023-05-20T06:56:53.737Z,24.40
2023-05-20T06:59:22.689Z,23.70
2023-05-20T07:01:50.772Z,23.10
2023-05-20T07:04:19.883Z,23.60
2023-05-20T07:06:48.155Z,24.40
2023-05-20T07:09:16.482Z,24.10
2023-05-20T07:11:44.569Z,23.50
2023-05-20T07:14:12.961Z,22.90
2023-05-20T07:16:41.672Z,22.70
2023-05-20T07:19:10.115Z,22.50
2023-05-20T07:21:38.186Z,22.80
2023-05-20T07:24:24.301Z,21.70
2023-05-20T07:26:52.454Z,23.30
2023-05-20T07:29:20.549Z,21.20
2023-05-20T07:31:48.646Z,22.40
2023-05-20T07:34:17.513Z,22.00
2023-05-20T07:36:45.550Z,22.20
2023-05-20T07:39:15.331Z,21.90
2023-05-20T07:41:43.665Z,22.00
2023-05-20T07:44:13.078Z,22.20
2023-05-20T07:46:44.066Z,22.00
2023-05-20T07:49:12.537Z,22.20
2023-05-20T07:51:41.593Z,21.70
2023-05-20T07:54:09.717Z,20.00
2023-05-20T07:56:38.496Z,20.40
2023-05-20T07:59:07.606Z,20.80
2023-05-20T08:01:42.246Z,20.70
2023-05-20T08:04:12.084Z,19.60
2023-05-20T08:06:41.398Z,20.80
2023-05-20T08:09:11.811Z,22.90
2023-05-20T08:11:42.171Z,21.10
2023-05-20T08:14:10.264Z,20.30
2023-05-20T08:16:42.470Z,20.50
2023-05-20T08:19:10.751Z,20.90
2023-05-20T08:21:39.248Z,21.20
2023-05-20T08:24:08.089Z,20.30
2023-05-20T08:26:36.411Z,21.80
2023-05-20T08:29:04.500Z,21.30
2023-05-20T08:31:33.583Z,20.80
2023-05-20T08:34:01.811Z,20.80
2023-05-20T08:36:29.888Z,21.40
2023-05-20T08:38:58.035Z,20.70
2023-05-20T08:41:26.424Z,20.90
2023-05-20T08:43:54.702Z,21.60
2023-05-20T08:46:23.652Z,23.00
2023-05-20T08:48:52.223Z,21.60
2023-05-20T08:51:23.834Z,21.20
2023-05-20T08:53:52.351Z,21.40
2023-05-20T08:56:21.991Z,21.70
2023-05-20T08:58:50.549Z,21.70
2023-05-20T09:01:18.703Z,21.60
2023-05-20T09:03:46.670Z,20.60
2023-05-20T09:06:17.986Z,21.10
2023-05-20T09:08:47.024Z,20.60
2023-05-20T09:11:15.113Z,21.60
2023-05-20T09:13:43.431Z,22.40
2023-05-20T09:16:11.791Z,22.10
2023-05-20T09:18:40.894Z,20.40
2023-05-20T09:21:10.285Z,22.20
2023-05-20T09:23:38.665Z,22.00
2023-05-20T09:26:06.895Z,22.60
2023-05-20T09:28:36.144Z,22.20
2023-05-20T09:31:05.807Z,21.80
2023-05-20T09:33:35.685Z,21.20
2023-05-20T09:36:05.129Z,21.90
2023-05-20T09:38:38.254Z,22.30
2023-05-20T09:41:13.925Z,21.90
2023-05-20T09:43:42.484Z,22.60
2023-05-20T09:46:10.997Z,24.40
2023-05-20T09:48:40.156Z,23.40
2023-05-20T09:51:09.826Z,25.70
2023-05-20T09:53:38.021Z,23.90
2023-05-20T09:56:06.285Z,23.90
2023-05-20T09:58:36.135Z,24.50
2023-05-20T10:01:04.218Z,24.20
2023-05-20T10:03:33.450Z,23.70
2023-05-20T10:06:21.544Z,23.40
2023-05-20T10:08:58.077Z,24.10
2023-05-20T10:11:44.363Z,23.20
2023-05-20T10:14:37.164Z,24.00
2023-05-20T10:17:13.490Z,24.80
2023-05-20T10:19:41.946Z,23.30
2023-05-20T10:22:11.791Z,23.60
2023-05-20T10:24:41.895Z,23.50
2023-05-20T10:27:18.176Z,23.60
2023-05-20T10:29:52.291Z,22.70
2023-05-20T10:32:27.991Z,23.00
2023-05-20T10:35:01.626Z,23.60
2023-05-20T10:40:08.898Z,23.10
2023-05-20T10:42:37.137Z,23.80
2023-05-20T10:45:06.526Z,21.80
2023-05-20T10:47:35.354Z,22.20
2023-05-20T10:50:06.025Z,22.80
2023-05-20T10:52:37.050Z,24.10
2023-05-20T10:55:05.538Z,24.30
2023-05-20T10:57:34.658Z,23.20
2023-05-20T11:00:05.593Z,22.40
2023-05-20T11:02:34.515Z,22.90
2023-05-20T11:05:04.390Z,22.60
2023-05-20T11:07:32.582Z,22.30
2023-05-20T11:10:00.667Z,22.30
2023-05-20T11:12:28.705Z,22.60
2023-05-20T11:14:56.902Z,23.10
2023-05-20T11:17:25.000Z,22.50
2023-05-20T11:19:53.044Z,22.40
2023-05-20T11:22:21.218Z,20.80
2023-05-20T11:24:49.195Z,23.00
2023-05-20T11:27:17.306Z,22.30
2023-05-20T11:29:45.547Z,21.60
2023-05-20T11:32:13.551Z,21.00
2023-05-20T11:34:42.734Z,21.60
2023-05-20T11:37:11.796Z,22.00
2023-05-20T11:39:40.381Z,20.40
2023-05-20T11:42:08.451Z,20.80
2023-05-20T11:44:36.583Z,21.00
2023-05-20T11:47:04.845Z,19.90
2023-05-20T11:49:40.534Z,19.60
2023-05-20T11:52:10.308Z,18.60
2023-05-20T11:54:38.622Z,19.20
2023-05-20T11:57:07.328Z,20.50
2023-05-20T11:59:35.630Z,19.00
2023-05-20T12:02:03.687Z,19.30
2023-05-20T12:04:31.743Z,18.50
2023-05-20T12:06:59.891Z,18.90
2023-05-20T12:09:28.027Z,18.70
2023-05-20T12:11:56.916Z,18.70
2023-05-20T12:14:24.964Z,18.90
2023-05-20T12:16:53.804Z,19.70
2023-05-20T12:19:21.814Z,20.10
2023-05-20T12:21:49.890Z,19.60
2023-05-20T12:24:17.890Z,20.70
2023-05-20T12:26:45.830Z,18.90
2023-05-20T12:29:13.890Z,21.90
2023-05-20T12:31:41.899Z,22.20
2023-05-20T12:34:09.841Z,20.50
2023-05-20T12:36:37.970Z,19.80
2023-05-20T12:39:06.229Z,19.00
2023-05-20T12:41:34.333Z,21.60
2023-05-20T12:44:02.559Z,22.80
2023-05-20T12:46:30.754Z,20.10
2023-05-20T12:48:58.760Z,19.60
2023-05-20T12:51:26.783Z,19.60
2023-05-20T12:53:54.784Z,18.80
2023-05-20T12:56:23.831Z,19.60
2023-05-20T12:58:51.875Z,16.80
2023-05-20T13:01:19.869Z,18.60
2023-05-20T13:03:48.127Z,17.60
2023-05-20T13:06:16.798Z,16.90
2023-05-20T13:08:45.484Z,17.40
2023-05-20T13:11:13.784Z,16.80
2023-05-20T13:13:41.757Z,16.30
2023-05-20T13:16:10.699Z,16.40
2023-05-20T13:18:38.753Z,18.80
2023-05-20T13:21:06.847Z,16.10
2023-05-20T13:23:34.910Z,18.30
2023-05-20T13:26:03.125Z,15.20
2023-05-20T13:28:31.442Z,15.80
2023-05-20T13:30:59.486Z,17.30
2023-05-20T13:33:27.508Z,16.90
2023-05-20T13:35:55.635Z,19.00
2023-05-20T13:38:23.638Z,18.30
2023-05-20T13:40:51.738Z,19.60
2023-05-20T13:43:19.687Z,20.20
2023-05-20T13:45:47.799Z,16.20
2023-05-20T13:48:16.260Z,18.70
2023-05-20T13:50:44.420Z,17.10
2023-05-20T13:53:13.886Z,15.60
2023-05-20T13:55:42.123Z,14.70
2023-05-20T13:58:10.149Z,13.40
2023-05-20T14:00:39.137Z,14.60
2023-05-20T14:03:09.192Z,14.10
2023-05-20T14:05:37.533Z,13.40
2023-05-20T14:08:05.679Z,12.60
2023-05-20T14:10:33.929Z,12.80
2023-05-20T14:13:02.296Z,14.90
2023-05-20T14:15:33.078Z,13.20
2023-05-20T14:18:01.138Z,13.70
2023-05-20T14:20:29.085Z,14.40
2023-05-20T14:22:57.324Z,11.80
2023-05-20T14:25:25.301Z,11.50
2023-05-20T14:27:53.370Z,12.70
2023-05-20T14:30:21.464Z,12.10
2023-05-20T14:32:49.564Z,13.60
2023-05-20T14:35:18.354Z,12.40
2023-05-20T14:37:46.574Z,14.60
2023-05-20T14:40:14.847Z,14.20
2023-05-20T14:42:42.829Z,14.10
2023-05-20T14:45:11.281Z,14.20
2023-05-20T14:47:42.002Z,13.90
2023-05-20T14:50:10.226Z,13.00
2023-05-20T14:52:38.256Z,14.70
2023-05-20T14:55:06.348Z,13.60
2023-05-20T14:57:34.381Z,12.80
2023-05-20T15:00:02.413Z,12.80
2023-05-20T15:02:30.610Z,12.60
2023-05-20T15:04:59.052Z,14.00
2023-05-20T15:07:27.737Z,16.40
2023-05-20T15:09:55.894Z,24.80
2023-05-20T15:12:24.005Z,18.70
2023-05-20T15:14:51.946Z,15.60
2023-05-20T15:17:19.883Z,14.60
2023-05-20T15:19:47.829Z,14.90
2023-05-20T15:22:15.866Z,15.00
2023-05-20T15:24:43.790Z,15.40
2023-05-20T15:27:11.787Z,15.90
2023-05-20T15:29:40.906Z,16.30
2023-05-20T15:32:09.088Z,16.00
2023-05-20T15:34:37.142Z,15.20
2023-05-20T15:37:05.103Z,15.00
2023-05-20T15:39:37.294Z,16.60
2023-05-20T15:42:06.416Z,15.70
2023-05-20T15:44:36.163Z,15.70
2023-05-20T15:47:06.145Z,16.10
2023-05-20T15:49:34.258Z,16.30
2023-05-20T15:52:03.924Z,17.10
2023-05-20T15:54:32.957Z,16.40
2023-05-20T15:57:01.260Z,17.10
2023-05-20T15:59:29.314Z,17.00
2023-05-20T16:01:57.481Z,19.10
2023-05-20T16:04:25.896Z,20.30
2023-05-20T16:06:54.094Z,19.80
2023-05-20T16:09:22.443Z,17.80
2023-05-20T16:11:50.492Z,17.50
2023-05-20T16:14:18.657Z,17.10
2023-05-20T16:16:46.720Z,17.00
2023-05-20T16:19:14.790Z,16.20
2023-05-20T16:21:42.794Z,17.80
2023-05-20T16:24:10.877Z,17.50
2023-05-20T16:26:38.869Z,17.10
2023-05-20T16:29:07.172Z,16.90
2023-05-20T16:31:35.134Z,16.80
2023-05-20T16:34:03.986Z,17.70
2023-05-20T16:36:32.039Z,17.30
2023-05-20T16:38:59.977Z,19.30
2023-05-20T16:41:28.004Z,20.40
2023-05-20T16:43:58.752Z,19.10
2023-05-20T16:46:26.783Z,22.90
2023-05-20T16:48:54.958Z,23.80
2023-05-20T16:51:23.608Z,19.90
2023-05-20T16:53:51.926Z,18.50
2023-05-20T16:56:22.115Z,19.90
2023-05-20T16:58:52.682Z,21.90
2023-05-20T17:01:21.911Z,23.90
2023-05-20T17:03:50.013Z,21.50
2023-05-20T17:06:18.066Z,27.20
2023-05-20T17:08:46.188Z,37.60
2023-05-20T17:11:14.223Z,33.80
2023-05-20T17:13:42.398Z,33.30
2023-05-20T17:16:12.120Z,32.60
2023-05-20T17:18:40.327Z,33.90
2023-05-20T17:21:08.382Z,40.90
2023-05-20T17:23:36.375Z,36.40
2023-05-20T17:26:04.577Z,34.30
2023-05-20T17:28:32.537Z,32.20
2023-05-20T17:31:00.492Z,27.50
2023-05-20T17:33:28.676Z,31.50
2023-05-20T17:35:57.084Z,28.20
2023-05-20T17:38:26.502Z,34.10
2023-05-20T17:40:55.271Z,36.80
2023-05-20T17:43:25.164Z,35.40
2023-05-20T17:45:53.330Z,33.70
2023-05-20T17:48:21.426Z,35.10
2023-05-20T17:50:49.520Z,33.20
2023-05-20T17:53:18.717Z,29.90
2023-05-20T17:55:49.506Z,30.50
2023-05-20T17:58:17.608Z,30.10
2023-05-20T18:00:45.577Z,28.80
2023-05-20T18:03:13.980Z,28.30
2023-05-20T18:05:42.564Z,31.00
2023-05-20T18:08:10.573Z,31.30
2023-05-20T18:10:38.930Z,37.50
2023-05-20T18:13:06.895Z,35.00
2023-05-20T18:15:34.846Z,39.40
2023-05-20T18:18:02.977Z,37.40
2023-05-20T18:20:31.146Z,35.40
2023-05-20T18:22:59.284Z,32.70
2023-05-20T18:25:27.400Z,32.00
2023-05-20T18:27:55.531Z,32.40
2023-05-20T18:30:23.686Z,32.30
2023-05-20T18:32:51.874Z,33.40
2023-05-20T18:35:19.928Z,34.60
2023-05-20T18:37:47.893Z,35.50
2023-05-20T18:40:15.927Z,33.40
2023-05-20T18:42:43.905Z,30.70
2023-05-20T18:45:12.277Z,32.00
2023-05-20T18:47:40.403Z,33.30
2023-05-20T18:50:09.635Z,34.90
2023-05-20T18:52:37.662Z,39.90
2023-05-20T18:55:08.974Z,38.20
2023-05-20T18:57:37.853Z,41.40
2023-05-20T19:00:10.784Z,42.10
2023-05-20T19:02:40.173Z,48.50
2023-05-20T19:05:09.346Z,46.00
2023-05-20T19:07:38.544Z,45.80
2023-05-20T19:10:07.521Z,44.40
2023-05-20T19:12:35.470Z,42.40
2023-05-20T19:15:05.188Z,41.70
2023-05-20T19:17:33.851Z,40.30
2023-05-20T19:20:02.565Z,45.10
2023-05-20T19:22:30.936Z,41.80
2023-05-20T19:24:59.351Z,44.00
2023-05-20T19:27:27.420Z,49.10
2023-05-20T19:29:55.571Z,49.80
2023-05-20T19:32:23.683Z,47.50
2023-05-20T19:34:51.682Z,48.90
2023-05-20T19:37:22.341Z,49.60
2023-05-20T19:39:51.124Z,44.30
2023-05-20T19:42:19.085Z,46.80
2023-05-20T19:44:47.289Z,45.10
2023-05-20T19:47:15.757Z,44.90
2023-05-20T19:49:43.749Z,43.90
2023-05-20T19:52:11.690Z,44.40
2023-05-20T19:54:41.785Z,43.60
2023-05-20T19:57:10.064Z,45.60
2023-05-20T19:59:38.357Z,45.60
2023-05-20T20:02:07.040Z,44.70
2023-05-20T20:04:36.468Z,44.70
2023-05-20T20:07:04.751Z,46.90
2023-05-20T20:09:33.454Z,46.30
2023-05-20T20:12:02.829Z,45.70
2023-05-20T20:14:31.376Z,47.10
2023-05-20T20:16:59.809Z,61.50
2023-05-20T20:19:28.633Z,62.30
2023-05-20T20:21:58.159Z,44.40
2023-05-20T20:24:28.028Z,44.00
2023-05-20T20:26:57.054Z,43.40
2023-05-20T20:29:25.702Z,53.40
2023-05-20T20:31:54.364Z,56.60
2023-05-20T20:34:22.807Z,58.20
2023-05-20T20:36:51.385Z,46.80
2023-05-20T20:39:19.496Z,49.30
2023-05-20T20:41:52.272Z,47.30
2023-05-20T20:44:23.126Z,46.50
2023-05-20T20:46:51.917Z,46.70
2023-05-20T20:49:22.172Z,46.80
2023-05-20T20:51:51.019Z,45.20
2023-05-20T20:54:19.010Z,46.30
2023-05-20T20:56:47.293Z,46.40
2023-05-20T20:59:16.045Z,44.70
2023-05-20T21:01:45.140Z,46.50
2023-05-20T21:04:13.974Z,45.50
2023-05-20T21:06:42.525Z,50.30
2023-05-20T21:09:11.640Z,54.10
2023-05-20T21:11:42.475Z,54.80
2023-05-20T21:14:12.407Z,51.10
2023-05-20T21:16:42.158Z,51.30
2023-05-20T21:19:12.930Z,49.70
2023-05-20T21:21:41.044Z,49.60
2023-05-20T21:24:09.019Z,45.90
2023-05-20T21:26:37.007Z,46.80
2023-05-20T21:29:06.111Z,45.40
2023-05-20T21:31:34.161Z,47.30
2023-05-20T21:34:02.254Z,45.60
2023-05-20T21:36:30.538Z,49.30
2023-05-20T21:38:58.485Z,45.80
2023-05-20T21:41:27.334Z,43.20
2023-05-20T21:43:55.555Z,44.30
2023-05-20T21:46:23.807Z,41.30
2023-05-20T21:48:51.865Z,41.10
2023-05-20T21:51:19.952Z,41.80
2023-05-20T21:53:47.924Z,39.80
2023-05-20T21:56:15.902Z,40.80
2023-05-20T21:58:43.892Z,40.60
2023-05-20T22:01:11.986Z,41.40
2023-05-20T22:03:40.344Z,40.50
2023-05-20T22:06:09.237Z,43.00
2023-05-20T22:08:37.267Z,46.00
2023-05-20T22:11:08.417Z,42.40
2023-05-20T22:13:36.410Z,44.40
2023-05-20T22:16:05.194Z,43.20
2023-05-20T22:18:34.048Z,42.50
2023-05-20T22:21:02.114Z,41.40
2023-05-20T22:23:30.093Z,41.50
2023-05-20T22:25:58.240Z,40.40
2023-05-20T22:28:26.334Z,40.40
2023-05-20T22:30:54.842Z,41.90
2023-05-20T22:33:24.389Z,43.90
2023-05-20T22:35:53.603Z,43.40
2023-05-20T22:38:22.033Z,43.80
2023-05-20T22:40:50.097Z,43.90
2023-05-20T22:43:18.068Z,42.50
2023-05-20T22:45:46.139Z,39.40
2023-05-20T22:48:14.388Z,40.40
2023-05-20T22:50:42.307Z,40.20
2023-05-20T22:53:10.237Z,41.00
2023-05-20T22:55:38.859Z,41.00
2023-05-20T22:58:08.024Z,41.60
2023-05-20T23:00:36.438Z,39.80
2023-05-20T23:03:05.107Z,41.90
2023-05-20T23:05:33.237Z,41.50
2023-05-20T23:08:01.422Z,40.00
2023-05-20T23:10:29.454Z,39.50
2023-05-20T23:12:57.399Z,41.00
2023-05-20T23:15:25.540Z,39.80
2023-05-20T23:17:53.590Z,40.90
2023-05-20T23:20:22.345Z,39.50
2023-05-20T23:22:50.646Z,39.30
2023-05-20T23:25:18.618Z,39.40
2023-05-20T23:27:46.697Z,40.10
2023-05-20T23:30:14.739Z,40.80
2023-05-20T23:32:42.855Z,39.20
2023-05-20T23:35:11.798Z,40.40
2023-05-20T23:37:41.227Z,40.70
2023-05-20T23:40:09.711Z,40.00
2023-05-20T23:42:38.032Z,40.10
2023-05-20T23:45:06.590Z,42.20
2023-05-20T23:47:36.323Z,41.30
2023-05-20T23:50:04.491Z,40.30
2023-05-20T23:52:32.503Z,41.50
2023-05-20T23:55:00.462Z,44.30
2023-05-20T23:57:28.525Z,44.10
2023-05-20T23:59:56.569Z,43.60
